Summerland, California
Current Conditions -  °F | °C
As of 6:53 PM on Friday 21 Nov 2014 (Local Time) from KSBA Reporting Station
Clear Clear  
Wind Chill: 67°   Ceiling: Unl
Heat Index: 67°   Visibility: 10mi
Dew Point: 35°   Wind: 0mph
Humidity: 31%   Direction: NA
Pressure: 29.98"   Gusts: NA
Location:  34.42°N, 119.6°W
Report Text: KSBA 220253Z 00000KT 10SM CLR 19/02 A2998 RMK AO2 SLP152 T01940017 51016
Loading
Personal Weather Stations






























Interactive Weather Map New forecast layout! Learn more

10-Day Weather Forecast

Advertisements
Track Severe Weather on mobile